createdAt,value
2023-12-09T00:01:46.775Z,1.43
2023-12-09T00:04:14.038Z,1.38
2023-12-09T00:06:49.092Z,1.37
2023-12-09T00:09:19.367Z,1.35
2023-12-09T00:11:46.916Z,1.35
2023-12-09T00:14:14.174Z,1.39
2023-12-09T00:16:41.892Z,1.43
2023-12-09T00:19:10.728Z,1.44
2023-12-09T00:21:38.204Z,1.38
2023-12-09T00:24:05.677Z,1.40
2023-12-09T00:26:32.921Z,1.43
2023-12-09T00:29:00.246Z,1.41
2023-12-09T00:31:27.613Z,1.39
2023-12-09T00:33:54.978Z,1.45
2023-12-09T00:36:22.386Z,1.48
2023-12-09T00:38:49.651Z,1.49
2023-12-09T00:41:16.916Z,1.49
2023-12-09T00:43:44.192Z,1.49
2023-12-09T00:46:12.014Z,1.49
2023-12-09T00:48:39.376Z,1.49
2023-12-09T00:51:06.918Z,1.51
2023-12-09T00:53:34.110Z,1.48
2023-12-09T00:56:01.348Z,1.46
2023-12-09T00:58:28.542Z,1.51
2023-12-09T01:00:55.781Z,1.54
2023-12-09T01:03:23.159Z,1.54
2023-12-09T01:05:50.440Z,1.58
2023-12-09T01:08:17.633Z,1.60
2023-12-09T01:10:44.868Z,1.61
2023-12-09T01:13:12.078Z,1.58
2023-12-09T01:15:39.390Z,1.61
2023-12-09T01:18:06.792Z,1.61
2023-12-09T01:20:34.102Z,1.61
2023-12-09T01:23:01.326Z,1.63
2023-12-09T01:25:28.559Z,1.66
2023-12-09T01:27:55.797Z,1.68
2023-12-09T01:30:23.018Z,1.67
2023-12-09T01:32:50.325Z,1.66
2023-12-09T01:35:17.588Z,1.65
2023-12-09T01:37:44.832Z,1.66
2023-12-09T01:40:15.723Z,1.67
2023-12-09T01:42:43.472Z,1.69
2023-12-09T01:45:11.509Z,1.67
2023-12-09T01:47:40.256Z,1.71
2023-12-09T01:50:08.676Z,1.69
2023-12-09T01:52:36.390Z,1.68
2023-12-09T01:55:07.176Z,1.69
2023-12-09T01:57:34.486Z,1.69
2023-12-09T02:00:02.795Z,1.70
2023-12-09T02:02:30.424Z,1.73
2023-12-09T02:04:57.988Z,1.74
2023-12-09T02:07:25.256Z,1.70
2023-12-09T02:09:52.676Z,1.75
2023-12-09T02:12:42.286Z,1.80
2023-12-09T02:15:22.301Z,1.79
2023-12-09T02:18:00.513Z,1.79
2023-12-09T02:20:28.196Z,1.79
2023-12-09T02:23:12.213Z,1.79
2023-12-09T02:25:40.436Z,1.79
2023-12-09T02:28:14.555Z,1.78
2023-12-09T02:30:58.250Z,1.78
2023-12-09T02:33:26.403Z,1.78
2023-12-09T02:35:55.709Z,1.80
2023-12-09T02:38:23.457Z,1.81
2023-12-09T02:40:51.473Z,1.79
2023-12-09T02:43:19.148Z,1.78
2023-12-09T02:45:47.144Z,1.80
2023-12-09T02:48:14.588Z,1.79
2023-12-09T02:50:42.031Z,1.76
2023-12-09T02:53:09.204Z,1.78
2023-12-09T02:55:36.437Z,1.78
2023-12-09T02:58:03.605Z,1.80
2023-12-09T03:00:30.945Z,1.80
2023-12-09T03:02:58.452Z,1.80
2023-12-09T03:05:26.476Z,1.80
2023-12-09T03:07:53.771Z,1.79
2023-12-09T03:10:21.064Z,1.81
2023-12-09T03:12:48.491Z,1.80
2023-12-09T03:15:15.737Z,1.81
2023-12-09T03:17:43.913Z,1.83
2023-12-09T03:20:11.620Z,1.79
2023-12-09T03:22:38.825Z,1.79
2023-12-09T03:25:06.360Z,1.77
2023-12-09T03:27:33.651Z,1.75
2023-12-09T03:30:01.006Z,1.76
2023-12-09T03:32:28.490Z,1.76
2023-12-09T03:34:55.839Z,1.78
2023-12-09T03:37:23.037Z,1.74
2023-12-09T03:39:50.318Z,1.76
2023-12-09T03:42:17.533Z,1.78
2023-12-09T03:44:44.752Z,1.79
2023-12-09T03:47:18.713Z,1.80
2023-12-09T03:49:52.988Z,1.84
2023-12-09T03:52:20.200Z,1.82
2023-12-09T03:54:47.426Z,1.80
2023-12-09T03:57:15.947Z,1.80
2023-12-09T03:59:43.328Z,1.80
2023-12-09T04:02:10.577Z,1.84
2023-12-09T04:04:43.588Z,1.86
2023-12-09T04:07:10.819Z,1.87
2023-12-09T04:09:38.292Z,1.87
2023-12-09T04:12:05.792Z,1.89
2023-12-09T04:14:33.026Z,1.93
2023-12-09T04:17:00.226Z,1.91
2023-12-09T04:19:27.476Z,1.90
2023-12-09T04:21:54.835Z,1.91
2023-12-09T04:24:22.059Z,1.89
2023-12-09T04:26:49.287Z,1.95
2023-12-09T04:29:17.036Z,1.95
2023-12-09T04:31:44.418Z,1.97
2023-12-09T04:34:11.843Z,2.00
2023-12-09T04:36:39.295Z,1.99
2023-12-09T04:39:06.891Z,1.98
2023-12-09T04:41:34.172Z,1.99
2023-12-09T04:44:01.710Z,2.00
2023-12-09T04:46:29.342Z,2.02
2023-12-09T04:48:57.714Z,2.03
2023-12-09T04:51:25.134Z,2.04
2023-12-09T04:53:52.481Z,2.06
2023-12-09T04:56:20.231Z,2.06
2023-12-09T04:58:47.480Z,1.99
2023-12-09T05:01:14.828Z,2.02
2023-12-09T05:03:42.217Z,2.05
2023-12-09T05:06:10.125Z,2.07
2023-12-09T05:08:37.453Z,2.05
2023-12-09T05:11:04.736Z,2.06
2023-12-09T05:13:31.937Z,2.05
2023-12-09T05:15:59.152Z,2.05
2023-12-09T05:18:26.523Z,2.07
2023-12-09T05:20:53.934Z,2.07
2023-12-09T05:23:21.193Z,2.06
2023-12-09T05:25:50.616Z,2.08
2023-12-09T05:28:17.803Z,2.10
2023-12-09T05:30:45.036Z,2.06
2023-12-09T05:33:12.428Z,2.07
2023-12-09T05:35:39.727Z,2.06
2023-12-09T05:38:07.010Z,2.06
2023-12-09T05:40:35.948Z,2.04
2023-12-09T05:43:03.657Z,2.05
2023-12-09T05:45:30.954Z,2.04
2023-12-09T05:47:58.878Z,2.07
2023-12-09T05:50:26.271Z,2.03
2023-12-09T05:52:53.512Z,2.07
2023-12-09T05:55:20.705Z,2.07
2023-12-09T05:57:47.891Z,2.05
2023-12-09T06:00:15.233Z,2.11
2023-12-09T06:02:42.582Z,2.06
2023-12-09T06:05:10.503Z,2.10
2023-12-09T06:07:37.842Z,2.09
2023-12-09T06:10:06.689Z,2.13
2023-12-09T06:12:34.130Z,2.21
2023-12-09T06:15:01.529Z,2.21
2023-12-09T06:17:28.891Z,2.22
2023-12-09T06:19:56.224Z,2.20
2023-12-09T06:22:23.683Z,2.21
2023-12-09T06:24:52.345Z,2.23
2023-12-09T06:27:19.907Z,2.22
2023-12-09T06:29:47.184Z,2.21
2023-12-09T06:32:14.994Z,2.24
2023-12-09T06:34:42.372Z,2.16
2023-12-09T06:37:09.813Z,2.21
2023-12-09T06:39:37.302Z,2.20
2023-12-09T06:42:05.145Z,2.20
2023-12-09T06:44:32.404Z,2.20
2023-12-09T06:46:59.597Z,2.23
2023-12-09T06:49:26.863Z,2.25
2023-12-09T06:51:54.268Z,2.24
2023-12-09T06:54:21.510Z,2.27
2023-12-09T06:56:48.845Z,2.30
2023-12-09T06:59:16.245Z,2.33
2023-12-09T07:01:44.476Z,2.29
2023-12-09T07:04:13.676Z,2.29
2023-12-09T07:06:41.087Z,2.29
2023-12-09T07:09:09.680Z,2.29
2023-12-09T07:11:37.203Z,2.31
2023-12-09T07:14:04.408Z,2.26
2023-12-09T07:16:31.680Z,2.23
2023-12-09T07:19:01.895Z,2.26
2023-12-09T07:21:29.812Z,2.24
2023-12-09T07:24:00.005Z,2.29
2023-12-09T07:26:27.247Z,2.31
2023-12-09T07:28:55.582Z,2.33
2023-12-09T07:31:22.804Z,2.38
2023-12-09T07:33:50.223Z,2.39
2023-12-09T07:36:18.503Z,2.43
2023-12-09T07:38:45.703Z,2.41
2023-12-09T07:41:12.929Z,2.41
2023-12-09T07:43:41.096Z,2.41
2023-12-09T07:46:08.440Z,2.48
2023-12-09T07:48:35.800Z,2.47
2023-12-09T07:51:03.222Z,2.50
2023-12-09T07:53:30.996Z,2.56
2023-12-09T07:55:58.392Z,2.63
2023-12-09T07:58:25.678Z,2.65
2023-12-09T08:00:54.115Z,2.65
2023-12-09T08:03:21.470Z,2.71
2023-12-09T08:05:49.283Z,2.73
2023-12-09T08:08:16.660Z,2.75
2023-12-09T08:10:44.090Z,2.79
2023-12-09T08:13:12.865Z,2.80
2023-12-09T08:15:40.097Z,2.79
2023-12-09T08:18:07.597Z,2.84
2023-12-09T08:20:36.034Z,2.83
2023-12-09T08:23:04.652Z,2.88
2023-12-09T08:25:31.882Z,2.90
2023-12-09T08:27:59.123Z,2.90
2023-12-09T08:30:26.406Z,2.89
2023-12-09T08:32:53.922Z,2.90
2023-12-09T08:35:21.620Z,2.91
2023-12-09T08:37:48.848Z,2.95
2023-12-09T08:40:16.190Z,2.97
2023-12-09T08:42:45.508Z,2.99
2023-12-09T08:45:18.410Z,3.03
2023-12-09T08:47:46.278Z,3.04
2023-12-09T08:50:22.498Z,3.04
2023-12-09T08:52:55.599Z,3.08
2023-12-09T08:55:23.115Z,3.09
2023-12-09T08:57:52.489Z,3.12
2023-12-09T09:00:22.149Z,3.13
2023-12-09T09:02:50.836Z,3.12
2023-12-09T09:05:18.075Z,3.12
2023-12-09T09:07:46.010Z,3.16
2023-12-09T09:10:13.373Z,3.20
2023-12-09T09:12:40.742Z,3.21
2023-12-09T09:15:09.300Z,3.21
2023-12-09T09:17:37.315Z,3.26
2023-12-09T09:20:06.555Z,3.31
2023-12-09T09:22:38.380Z,3.32
2023-12-09T09:25:05.996Z,3.31
2023-12-09T09:27:33.381Z,3.33
2023-12-09T09:30:00.893Z,3.39
2023-12-09T09:32:29.014Z,3.43
2023-12-09T09:34:56.745Z,3.40
2023-12-09T09:37:24.433Z,3.45
2023-12-09T09:39:52.564Z,3.45
2023-12-09T09:42:37.904Z,3.48
2023-12-09T09:45:31.472Z,3.55
2023-12-09T09:48:05.560Z,3.53
2023-12-09T09:50:41.859Z,3.61
2023-12-09T09:53:10.735Z,3.62
2023-12-09T09:55:40.660Z,3.62
2023-12-09T09:58:08.278Z,3.66
2023-12-09T10:00:35.653Z,3.66
2023-12-09T10:03:04.496Z,3.70
2023-12-09T10:05:38.162Z,3.66
2023-12-09T10:08:06.636Z,3.68
2023-12-09T10:10:35.756Z,3.69
2023-12-09T10:13:05.196Z,3.72
2023-12-09T10:15:37.748Z,3.70
2023-12-09T10:18:13.396Z,3.72
2023-12-09T10:20:40.708Z,3.76
2023-12-09T10:23:09.543Z,3.78
2023-12-09T10:25:37.120Z,3.83
2023-12-09T10:28:06.635Z,3.86
2023-12-09T10:30:33.960Z,3.88
2023-12-09T10:33:01.701Z,3.94
2023-12-09T10:35:30.123Z,3.98
2023-12-09T10:38:04.855Z,4.01
2023-12-09T10:40:38.119Z,3.94
2023-12-09T10:43:05.983Z,3.96
2023-12-09T10:45:33.563Z,4.04
2023-12-09T10:48:01.092Z,4.05
2023-12-09T10:50:28.386Z,4.06
2023-12-09T10:52:55.605Z,4.05
2023-12-09T10:55:22.930Z,4.11
2023-12-09T10:58:02.082Z,4.13
2023-12-09T11:00:31.338Z,4.13
2023-12-09T11:03:02.162Z,4.15
2023-12-09T11:05:29.638Z,4.23
2023-12-09T11:07:58.642Z,4.22
2023-12-09T11:10:29.073Z,4.28
2023-12-09T11:12:56.496Z,4.30
2023-12-09T11:15:32.265Z,4.35
2023-12-09T11:18:13.463Z,4.35
2023-12-09T11:20:42.223Z,4.36
2023-12-09T11:23:11.674Z,4.37
2023-12-09T11:25:43.300Z,4.40
2023-12-09T11:28:14.026Z,4.38
2023-12-09T11:30:50.103Z,4.40
2023-12-09T11:33:17.674Z,4.47
2023-12-09T11:35:47.547Z,4.45
2023-12-09T11:38:16.031Z,4.48
2023-12-09T11:40:43.760Z,4.53
2023-12-09T11:43:11.339Z,4.58
2023-12-09T11:45:38.674Z,4.62
2023-12-09T11:48:07.061Z,4.62
2023-12-09T11:50:35.079Z,4.61
2023-12-09T11:53:02.322Z,4.63
2023-12-09T11:55:30.426Z,4.62
2023-12-09T11:57:57.691Z,4.68
2023-12-09T12:00:24.967Z,4.66
2023-12-09T12:02:52.185Z,4.63
2023-12-09T12:05:19.532Z,4.70
2023-12-09T12:07:46.891Z,4.71
2023-12-09T12:10:15.846Z,4.77
2023-12-09T12:12:44.846Z,4.76
2023-12-09T12:15:12.274Z,4.75
2023-12-09T12:17:40.376Z,4.75
2023-12-09T12:20:10.294Z,4.82
2023-12-09T12:22:37.591Z,4.81
2023-12-09T12:25:05.401Z,4.83
2023-12-09T12:27:36.973Z,4.82
2023-12-09T12:30:05.265Z,4.86
2023-12-09T12:32:39.188Z,4.89
2023-12-09T12:35:09.841Z,4.90
2023-12-09T12:37:37.079Z,4.88
2023-12-09T12:40:04.733Z,4.88
2023-12-09T12:42:32.449Z,4.82
2023-12-09T12:45:00.040Z,4.92
2023-12-09T12:47:27.348Z,4.97
2023-12-09T12:49:54.703Z,4.99
2023-12-09T12:52:22.099Z,4.96
2023-12-09T12:54:49.352Z,4.96
2023-12-09T12:57:16.585Z,5.08
2023-12-09T12:59:44.373Z,5.06
2023-12-09T13:02:11.673Z,5.13
2023-12-09T13:04:38.984Z,5.23
2023-12-09T13:07:06.207Z,5.26
2023-12-09T13:09:33.495Z,5.28
2023-12-09T13:12:00.825Z,5.37
2023-12-09T13:14:28.039Z,5.36
2023-12-09T13:16:56.232Z,5.45
2023-12-09T13:19:23.550Z,5.44
2023-12-09T13:21:50.851Z,5.46
2023-12-09T13:24:18.121Z,5.45
2023-12-09T13:26:45.652Z,5.41
2023-12-09T13:29:12.861Z,5.46
2023-12-09T13:31:40.086Z,5.46
2023-12-09T13:34:07.495Z,5.47
2023-12-09T13:36:39.656Z,5.47
2023-12-09T13:39:12.577Z,5.45
2023-12-09T13:41:41.021Z,5.41
2023-12-09T13:44:08.241Z,5.43
2023-12-09T13:46:35.748Z,5.41
2023-12-09T13:49:03.314Z,5.49
2023-12-09T13:51:30.670Z,5.53
2023-12-09T13:53:58.563Z,5.53
2023-12-09T13:56:26.539Z,5.50
2023-12-09T13:58:53.851Z,5.52
2023-12-09T14:01:22.325Z,5.52
2023-12-09T14:03:49.959Z,5.50
2023-12-09T14:06:17.531Z,5.49
2023-12-09T14:08:44.721Z,5.44
2023-12-09T14:11:15.485Z,5.42
2023-12-09T14:13:42.796Z,5.34
2023-12-09T14:16:10.498Z,5.37
2023-12-09T14:18:41.143Z,5.34
2023-12-09T14:21:08.594Z,5.34
2023-12-09T14:23:35.844Z,5.28
2023-12-09T14:26:04.483Z,5.32
2023-12-09T14:28:31.663Z,5.35
2023-12-09T14:30:58.881Z,5.35
2023-12-09T14:33:26.368Z,5.30
2023-12-09T14:35:53.933Z,5.24
2023-12-09T14:38:21.203Z,5.16
2023-12-09T14:40:48.462Z,5.21
2023-12-09T14:43:15.690Z,5.18
2023-12-09T14:45:43.012Z,5.13
2023-12-09T14:48:10.471Z,5.14
2023-12-09T14:50:37.893Z,5.01
2023-12-09T14:53:06.110Z,5.01
2023-12-09T14:55:33.382Z,4.94
2023-12-09T14:58:00.935Z,4.89
2023-12-09T15:00:28.482Z,4.94
2023-12-09T15:02:56.268Z,4.92
2023-12-09T15:05:23.678Z,4.87
2023-12-09T15:07:50.947Z,4.86
2023-12-09T15:10:18.254Z,4.76
2023-12-09T15:12:46.211Z,4.77
2023-12-09T15:15:13.596Z,4.70
2023-12-09T15:17:41.002Z,4.67
2023-12-09T15:20:10.216Z,4.62
2023-12-09T15:22:38.325Z,4.60
2023-12-09T15:25:06.086Z,4.59
2023-12-09T15:27:33.653Z,4.55
2023-12-09T15:30:04.988Z,4.47
2023-12-09T15:32:33.186Z,4.51
2023-12-09T15:35:01.013Z,4.41
2023-12-09T15:37:28.316Z,4.31
2023-12-09T15:39:55.540Z,4.29
2023-12-09T15:42:22.914Z,4.32
2023-12-09T15:44:50.248Z,4.31
2023-12-09T15:47:18.403Z,4.29
2023-12-09T15:49:45.819Z,4.28
2023-12-09T15:52:13.258Z,4.26
2023-12-09T15:54:40.578Z,4.26
2023-12-09T15:57:08.114Z,4.22
2023-12-09T15:59:35.373Z,4.18
2023-12-09T16:02:02.656Z,4.17
2023-12-09T16:04:29.926Z,4.14
2023-12-09T16:06:57.423Z,4.15
2023-12-09T16:09:24.673Z,4.11
2023-12-09T16:11:51.952Z,4.09
2023-12-09T16:14:19.178Z,4.11
2023-12-09T16:16:46.380Z,4.07
2023-12-09T16:19:13.848Z,4.00
2023-12-09T16:21:41.138Z,4.00
2023-12-09T16:24:08.421Z,3.97
2023-12-09T16:26:35.643Z,4.02
2023-12-09T16:29:02.924Z,3.92
2023-12-09T16:31:30.165Z,3.93
2023-12-09T16:33:57.647Z,3.94
2023-12-09T16:36:25.698Z,3.95
2023-12-09T16:38:55.684Z,3.90
2023-12-09T16:41:23.864Z,3.78
2023-12-09T16:43:51.147Z,3.84
2023-12-09T16:46:18.400Z,3.82
2023-12-09T16:48:45.752Z,3.81
2023-12-09T16:51:13.106Z,3.65
2023-12-09T16:53:40.396Z,3.73
2023-12-09T16:56:08.152Z,3.69
2023-12-09T16:58:35.339Z,3.62
2023-12-09T17:01:02.648Z,3.64
2023-12-09T17:03:30.008Z,3.62
2023-12-09T17:05:57.406Z,3.63
2023-12-09T17:08:24.679Z,3.62
2023-12-09T17:10:51.904Z,3.56
2023-12-09T17:13:19.091Z,3.51
2023-12-09T17:15:46.349Z,3.54
2023-12-09T17:18:14.011Z,3.56
2023-12-09T17:20:41.267Z,3.54
2023-12-09T17:23:08.443Z,3.52
2023-12-09T17:25:35.629Z,3.47
2023-12-09T17:28:03.371Z,3.46
2023-12-09T17:30:30.682Z,3.40
2023-12-09T17:32:58.045Z,3.43
2023-12-09T17:35:29.862Z,3.40
2023-12-09T17:37:57.364Z,3.34
2023-12-09T17:40:24.611Z,3.36
2023-12-09T17:42:52.272Z,3.25
2023-12-09T17:45:19.566Z,3.24
2023-12-09T17:47:46.870Z,3.23
2023-12-09T17:50:14.278Z,3.29
2023-12-09T17:52:42.116Z,3.21
2023-12-09T17:55:09.870Z,3.23
2023-12-09T17:57:37.277Z,3.18
2023-12-09T18:00:05.334Z,3.17
2023-12-09T18:02:32.615Z,3.18
2023-12-09T18:04:59.908Z,3.17
2023-12-09T18:07:27.725Z,3.15
2023-12-09T18:09:55.184Z,3.13
2023-12-09T18:12:22.430Z,3.08
2023-12-09T18:14:49.718Z,3.11
2023-12-09T18:17:16.957Z,3.08
2023-12-09T18:19:46.960Z,3.02
2023-12-09T18:22:14.800Z,2.96
2023-12-09T18:24:42.158Z,3.02
2023-12-09T18:27:09.588Z,3.01
2023-12-09T18:29:36.883Z,2.97
2023-12-09T18:32:05.640Z,2.95
2023-12-09T18:34:32.999Z,2.92
2023-12-09T18:37:00.229Z,2.93
2023-12-09T18:39:27.469Z,2.90
2023-12-09T18:41:55.125Z,2.89
2023-12-09T18:44:22.339Z,2.87
2023-12-09T18:46:49.558Z,2.80
2023-12-09T18:49:16.854Z,2.85
2023-12-09T18:51:44.274Z,2.83
2023-12-09T18:54:11.579Z,2.84
2023-12-09T18:56:38.977Z,2.80
2023-12-09T18:59:06.222Z,2.81
2023-12-09T19:01:33.533Z,2.79
2023-12-09T19:04:03.182Z,2.77
2023-12-09T19:06:34.005Z,2.78
2023-12-09T19:09:03.850Z,2.83
2023-12-09T19:11:31.433Z,2.78
2023-12-09T19:13:58.670Z,2.79
2023-12-09T19:16:25.869Z,2.78
2023-12-09T19:18:53.094Z,2.79
2023-12-09T19:21:20.457Z,2.78
2023-12-09T19:23:48.384Z,2.79
2023-12-09T19:26:16.244Z,2.74
2023-12-09T19:28:43.483Z,2.79
2023-12-09T19:31:10.696Z,2.80
2023-12-09T19:33:37.986Z,2.80
2023-12-09T19:36:06.474Z,2.75
2023-12-09T19:38:33.681Z,2.76
2023-12-09T19:41:00.946Z,2.75
2023-12-09T19:43:28.129Z,2.74
2023-12-09T19:45:55.386Z,2.73
2023-12-09T19:48:22.706Z,2.78
2023-12-09T19:50:50.006Z,2.73
2023-12-09T19:53:17.275Z,2.75
2023-12-09T19:55:44.469Z,2.73
2023-12-09T19:58:11.673Z,2.74
2023-12-09T20:00:39.685Z,2.72
2023-12-09T20:03:07.892Z,2.72
2023-12-09T20:05:35.211Z,2.70
2023-12-09T20:08:02.427Z,2.69
2023-12-09T20:10:29.652Z,2.72
2023-12-09T20:12:56.861Z,2.70
2023-12-09T20:15:28.006Z,2.71
2023-12-09T20:17:55.360Z,2.71
2023-12-09T20:20:27.161Z,2.68
2023-12-09T20:22:54.744Z,2.71
2023-12-09T20:25:22.021Z,2.73
2023-12-09T20:27:49.244Z,2.73
2023-12-09T20:30:16.640Z,2.77
2023-12-09T20:32:44.375Z,2.73
2023-12-09T20:35:12.126Z,2.78
2023-12-09T20:37:39.667Z,2.74
2023-12-09T20:40:07.464Z,2.74
2023-12-09T20:42:35.673Z,2.74
2023-12-09T20:45:04.090Z,2.71
2023-12-09T20:47:31.409Z,2.70
2023-12-09T20:49:58.669Z,2.71
2023-12-09T20:52:26.075Z,2.70
2023-12-09T20:54:53.486Z,2.69
2023-12-09T20:57:20.817Z,2.69
2023-12-09T20:59:48.019Z,2.69
2023-12-09T21:02:15.323Z,2.71
2023-12-09T21:04:45.745Z,2.68
2023-12-09T21:07:13.045Z,2.72
2023-12-09T21:09:41.029Z,2.68
2023-12-09T21:12:09.105Z,2.69
2023-12-09T21:14:36.697Z,2.68
2023-12-09T21:17:04.134Z,2.71
2023-12-09T21:19:35.367Z,2.65
2023-12-09T21:22:08.109Z,2.69
2023-12-09T21:24:35.836Z,2.65
2023-12-09T21:27:03.211Z,2.69
2023-12-09T21:29:30.443Z,2.70
2023-12-09T21:31:57.664Z,2.69
2023-12-09T21:34:25.065Z,2.68
2023-12-09T21:36:52.508Z,2.66
2023-12-09T21:39:19.835Z,2.73
2023-12-09T21:41:47.580Z,2.71
2023-12-09T21:44:14.909Z,2.73
2023-12-09T21:46:42.665Z,2.71
2023-12-09T21:49:09.969Z,2.75
2023-12-09T21:51:41.248Z,2.78
2023-12-09T21:54:08.992Z,2.75
2023-12-09T21:56:36.371Z,2.79
2023-12-09T21:59:03.565Z,2.84
2023-12-09T22:01:30.896Z,2.84
2023-12-09T22:03:58.203Z,2.83
2023-12-09T22:06:25.446Z,2.91
2023-12-09T22:08:52.628Z,2.90
2023-12-09T22:11:19.903Z,2.94
2023-12-09T22:13:47.075Z,2.96
2023-12-09T22:16:20.289Z,2.95
2023-12-09T22:18:48.378Z,2.97
2023-12-09T22:21:15.660Z,2.94
2023-12-09T22:23:43.451Z,3.01
2023-12-09T22:26:10.657Z,2.99
2023-12-09T22:28:40.204Z,3.05
2023-12-09T22:31:10.312Z,3.08
2023-12-09T22:33:41.130Z,3.12
2023-12-09T22:36:09.840Z,3.17
2023-12-09T22:38:37.270Z,3.15
2023-12-09T22:41:04.735Z,3.21
2023-12-09T22:43:31.988Z,3.28
2023-12-09T22:45:59.187Z,3.28
2023-12-09T22:48:26.671Z,3.32
2023-12-09T22:50:54.855Z,3.36
2023-12-09T22:53:22.223Z,3.35
2023-12-09T22:55:49.421Z,3.39
2023-12-09T22:58:16.607Z,3.38
2023-12-09T23:00:44.786Z,3.36
2023-12-09T23:03:12.119Z,3.38
2023-12-09T23:05:39.356Z,3.39
2023-12-09T23:08:06.592Z,3.37
2023-12-09T23:10:33.987Z,3.36
2023-12-09T23:13:01.318Z,3.39
2023-12-09T23:15:28.608Z,3.39
2023-12-09T23:17:55.975Z,3.37
2023-12-09T23:20:23.280Z,3.38
2023-12-09T23:22:50.475Z,3.36
2023-12-09T23:25:17.660Z,3.35
2023-12-09T23:27:44.876Z,3.37
2023-12-09T23:30:12.454Z,3.37
2023-12-09T23:32:39.774Z,3.36
2023-12-09T23:35:07.094Z,3.34
2023-12-09T23:37:34.280Z,3.34
2023-12-09T23:40:01.531Z,3.33
2023-12-09T23:42:29.376Z,3.32
2023-12-09T23:44:56.834Z,3.30
2023-12-09T23:47:24.138Z,3.26
2023-12-09T23:49:51.354Z,3.27
2023-12-09T23:52:18.543Z,3.24
2023-12-09T23:54:45.747Z,3.20
2023-12-09T23:57:13.194Z,3.20
2023-12-09T23:59:40.435Z,3.20
